Météo Nord-Pas-de-Calais   La météo au plus près de chez vous

Station météorologique

Observations météo à Toulouse-Blagnac (31069)

31069001 151 m Dernier relevé à 17:06
30.2°C
Humidité 34 % Vent 11.9 km/h 1020.9 hPa

Journée consultée

Mercredi 2 Septembre 2026

Synthèse de la journée

Périodes de référence en UTC

Température maximale

31.1°C

à 17:00

06h 06h

Température minimale

17.8°C

à 07:36

18h 18h

Rafale maximale

28 km/h

à 15:54

00h 00h

Précipitations

0 mm

Cumul quotidien

06h 06h

Ensoleillement

9h 22 mins

Durée quotidienne

00h 00h

Graphiques de la journée

Heure locale Réduire

Données détaillées

Relevés météo

Pas de 6 minutes Afficher les relevés infra-horaires
Relevés météo détaillés à Toulouse-Blagnac pour le Mercredi 2 Septembre 2026
Heure Température °C Point de rosée °C Humidité % Vent moyen (raf.), km/h Précipitations mm Température à 10 cm °C Température à 20 cm °C Température à 50 cm °C Température à 100 cm °C Visibilité m État du sol   Hauteur neige cm Ensoleillement min Rayonnement global W/m² Pression hPa
17:06 30.2 °C 13 °C 35 % 13 km/h (26 km/h) 0 mm0 mm 27.3 °C 25.6 °C 24.4 °C 23.2 °C 60000 m 0   0 cm 6 min 204.7 W/m² 1020.8 hPa
17:00 30.5 °C 13.3 °C 35 % 9 km/h (19 km/h) 0 mm0 mm 27.3 °C 25.6 °C 24.4 °C 23.2 °C 60000 m 0   0 cm 6 min 210.8 W/m² 1020.6 hPa
16:54 30.4 °C 13.2 °C 35 % 13 km/h (24 km/h) 0 mm0 mm 27.3 °C 25.5 °C 24.4 °C 23.2 °C 60000 m 0   0 cm 6 min 216.5 W/m² 1020.7 hPa
16:48 30.4 °C 13.2 °C 35 % 14 km/h (23 km/h) 0 mm0 mm 27.2 °C 25.5 °C 24.4 °C 23.2 °C 60000 m 0   0 cm 6 min 220.1 W/m² 1020.7 hPa
16:42 30.4 °C 12.8 °C 34 % 14 km/h (28 km/h) 0 mm0 mm 27.2 °C 25.5 °C 24.4 °C 23.2 °C 60000 m 0   0 cm 6 min 224.5 W/m² 1020.8 hPa
16:36 30.9 °C 12.8 °C 33 % 14 km/h (28 km/h) 0 mm0 mm 27.1 °C 25.5 °C 24.5 °C 23.2 °C 60000 m 0   0 cm 6 min 228.2 W/m² 1020.7 hPa
16:30 30.8 °C 13.1 °C 34 % 16 km/h (23 km/h) 0 mm0 mm 27.1 °C 25.4 °C 24.5 °C 23.2 °C 60000 m 0   0 cm 6 min 234.5 W/m² 1020.8 hPa
16:24 30.7 °C 13 °C 34 % 13 km/h (23 km/h) 0 mm0 mm 27 °C 25.4 °C 24.4 °C 23.2 °C 60000 m 0   0 cm 6 min 238.3 W/m² 1020.8 hPa
16:18 30.5 °C 12.9 °C 34 % 13 km/h (22 km/h) 0 mm0 mm 26.9 °C 25.3 °C 24.5 °C 23.2 °C 60000 m 0   0 cm 6 min 243.4 W/m² 1021 hPa
16:12 30.6 °C 12.9 °C 34 % 13 km/h (22 km/h) 0 mm0 mm 26.9 °C 25.3 °C 24.4 °C 23.2 °C 60000 m 0   0 cm 6 min 248.1 W/m² 1021 hPa
16:06 30.7 °C 13 °C 34 % 12 km/h (22 km/h) 0 mm0 mm 26.8 °C 25.3 °C 24.5 °C 23.2 °C 60000 m 0   0 cm 6 min 245.5 W/m² 1020.9 hPa
16:00 30.3 °C 13.1 °C 35 % 12 km/h (28 km/h) 0 mm0 mm 26.8 °C 25.2 °C 24.4 °C 23.2 °C 60000 m 0   0 cm 6 min 250.9 W/m² 1021.1 hPa
15:54 30.3 °C 13.1 °C 35 % 13 km/h (28 km/h) 0 mm0 mm 26.7 °C 25.2 °C 24.5 °C 23.2 °C 60000 m 0   0 cm 6 min 255.1 W/m² 1021.2 hPa
15:48 30.2 °C 13 °C 35 % 13 km/h (23 km/h) 0 mm0 mm 26.6 °C 25.2 °C 24.5 °C 23.2 °C 60000 m 0   0 cm 6 min 264.1 W/m² 1021.2 hPa
15:42 30.1 °C 13 °C 35 % 13 km/h (24 km/h) 0 mm0 mm 26.5 °C 25.2 °C 24.5 °C 23.2 °C 60000 m 0   0 cm 6 min 264.8 W/m² 1021.3 hPa
15:36 30.2 °C 13 °C 35 % 10 km/h (24 km/h) 0 mm0 mm 26.5 °C 25.2 °C 24.5 °C 23.3 °C 60000 m 0   0 cm 6 min 264.6 W/m² 1021.3 hPa
15:30 29.8 °C 12.7 °C 35 % 14 km/h (23 km/h) 0 mm0 mm 26.4 °C 25.1 °C 24.5 °C 23.2 °C 60000 m 0   0 cm 6 min 273.4 W/m² 1021.4 hPa
15:24 30 °C 13.3 °C 36 % 12 km/h (23 km/h) 0 mm0 mm 26.3 °C 25.1 °C 24.5 °C 23.2 °C 60000 m 0   0 cm 6 min 262.3 W/m² 1021.4 hPa
15:18 29.8 °C 13.1 °C 36 % 10 km/h (20 km/h) 0 mm0 mm 26.2 °C 25 °C 24.4 °C 23.2 °C 60000 m 0   0 cm 6 min 275.2 W/m² 1021.4 hPa
15:12 30 °C 13.7 °C 37 % 12 km/h (20 km/h) 0 mm0 mm 26.2 °C 25 °C 24.5 °C 23.2 °C 60000 m 0   0 cm 6 min 278.8 W/m² 1021.4 hPa
15:06 30 °C 13.3 °C 36 % 8 km/h (16 km/h) 0 mm0 mm 26.1 °C 25 °C 24.4 °C 23.2 °C 60000 m 0   0 cm 6 min 273.1 W/m² 1021.3 hPa
15:00 29.7 °C 13.5 °C 37 % 6 km/h (13 km/h) 0 mm0 mm 26.1 °C 25 °C 24.5 °C 23.2 °C 60000 m 0   0 cm 6 min 281.7 W/m² 1021.4 hPa
14:54 29.2 °C 13.4 °C 38 % 6 km/h (13 km/h) 0 mm0 mm 26 °C 24.9 °C 24.5 °C 23.2 °C 60000 m 0   0 cm 6 min 284.1 W/m² 1021.4 hPa
14:48 29.3 °C 13.5 °C 38 % 11 km/h (27 km/h) 0 mm0 mm 25.9 °C 24.9 °C 24.5 °C 23.2 °C 60000 m 0   0 cm 6 min 288 W/m² 1021.5 hPa
14:42 29.3 °C 13.5 °C 38 % 13 km/h (27 km/h) 0 mm0 mm 25.8 °C 24.9 °C 24.5 °C 23.2 °C 60000 m 0   0 cm 6 min 287.8 W/m² 1021.5 hPa
14:36 29.1 °C 13.3 °C 38 % 10 km/h (21 km/h) 0 mm0 mm 25.8 °C 24.9 °C 24.5 °C 23.2 °C 60000 m 0   0 cm 6 min 280.1 W/m² 1021.5 hPa
14:30 29 °C 13.2 °C 38 % 8 km/h (18 km/h) 0 mm0 mm 25.7 °C 24.8 °C 24.4 °C 23.2 °C 19840 m 0   0 cm 6 min 289.4 W/m² 1021.6 hPa
14:24 29 °C 13.2 °C 38 % 8 km/h (18 km/h) 0 mm0 mm 25.6 °C 24.8 °C 24.5 °C 23.2 °C 60000 m 0   0 cm 6 min 293 W/m² 1021.7 hPa
14:18 28.9 °C 13.6 °C 39 % 9 km/h (17 km/h) 0 mm0 mm 25.5 °C 24.8 °C 24.5 °C 23.2 °C 60000 m 0   0 cm 6 min 287.2 W/m² 1021.8 hPa
14:12 28.7 °C 13.4 °C 39 % 10 km/h (17 km/h) 0 mm0 mm 25.5 °C 24.8 °C 24.5 °C 23.2 °C 19240 m 0   0 cm 6 min 290.8 W/m² 1021.8 hPa
14:06 28.9 °C 13.6 °C 39 % 9 km/h (17 km/h) 0 mm0 mm 25.4 °C 24.7 °C 24.5 °C 23.2 °C 60000 m 0   0 cm 6 min 293.5 W/m² 1021.9 hPa
14:00 28.4 °C 13.5 °C 40 % 8 km/h (17 km/h) 0 mm0 mm 25.3 °C 24.7 °C 24.5 °C 23.2 °C 60000 m 0   0 cm 6 min 293.5 W/m² 1022 hPa
13:54 28.8 °C 13.9 °C 40 % 9 km/h (23 km/h) 0 mm0 mm 25.3 °C 24.7 °C 24.5 °C 23.2 °C 60000 m 0   0 cm 6 min 293.6 W/m² 1022.1 hPa
13:48 28.4 °C 13.5 °C 40 % 9 km/h (23 km/h) 0 mm0 mm 25.2 °C 24.7 °C 24.5 °C 23.2 °C 60000 m 0   0 cm 6 min 294.4 W/m² 1022 hPa
13:42 28.4 °C 13.5 °C 40 % 9 km/h (18 km/h) 0 mm0 mm 25.1 °C 24.7 °C 24.5 °C 23.2 °C 60000 m 0   0 cm 6 min 293.4 W/m² 1022.1 hPa
13:36 28.8 °C 13.9 °C 40 % 8 km/h (17 km/h) 0 mm0 mm 25.1 °C 24.7 °C 24.5 °C 23.2 °C 60000 m 0   0 cm 6 min 292 W/m² 1022.1 hPa
13:30 28.3 °C 13.4 °C 40 % 6 km/h (17 km/h) 0 mm0 mm 25 °C 24.7 °C 24.5 °C 23.2 °C 60000 m 0   0 cm 6 min 291.1 W/m² 1022.2 hPa
13:24 28 °C 13.5 °C 41 % 5 km/h (12 km/h) 0 mm0 mm 25 °C 24.6 °C 24.5 °C 23.2 °C 60000 m 0   0 cm 6 min 291.3 W/m² 1022.2 hPa
13:18 28 °C 13.1 °C 40 % 9 km/h (15 km/h) 0 mm0 mm 24.9 °C 24.6 °C 24.5 °C 23.2 °C 60000 m 0   0 cm 6 min 291.6 W/m² 1022.3 hPa
13:12 28 °C 13.5 °C 41 % 9 km/h (15 km/h) 0 mm0 mm 24.8 °C 24.6 °C 24.5 °C 23.2 °C 60000 m 0   0 cm 6 min 281.1 W/m² 1022.3 hPa
13:06 28 °C 13.1 °C 40 % 6 km/h (15 km/h) 0 mm0 mm 24.8 °C 24.6 °C 24.5 °C 23.2 °C 60000 m 0   0 cm 6 min 281 W/m² 1022.3 hPa
13:00 27.5 °C 12.7 °C 40 % 8 km/h (16 km/h) 0 mm0 mm 24.7 °C 24.6 °C 24.5 °C 23.2 °C 60000 m 0   0 cm 6 min 285.3 W/m² 1022.4 hPa
12:54 27.5 °C 12.3 °C 39 % 9 km/h (16 km/h) 0 mm0 mm 24.7 °C 24.6 °C 24.5 °C 23.2 °C 56310 m 0   0 cm 6 min 281.8 W/m² 1022.6 hPa
12:48 27.4 °C 12.2 °C 39 % 8 km/h (15 km/h) 0 mm0 mm 24.7 °C 24.6 °C 24.5 °C 23.2 °C 56310 m 0   0 cm 6 min 281.4 W/m² 1022.6 hPa
12:42 27.6 °C 11.6 °C 37 % 9 km/h (17 km/h) 0 mm0 mm 24.6 °C 24.6 °C 24.5 °C 23.2 °C 60000 m 0   0 cm 6 min 279.5 W/m² 1022.7 hPa
12:36 27.5 °C 11.9 °C 38 % 9 km/h (17 km/h) 0 mm0 mm 24.6 °C 24.6 °C 24.5 °C 23.2 °C 60000 m 0   0 cm 6 min 276.1 W/m² 1022.8 hPa
12:30 27.1 °C 11.6 °C 38 % 9 km/h (16 km/h) 0 mm0 mm 24.5 °C 24.6 °C 24.5 °C 23.2 °C 60000 m 0   0 cm 6 min 268.9 W/m² 1022.8 hPa
12:24 27.2 °C 12 °C 39 % 11 km/h (18 km/h) 0 mm0 mm 24.4 °C 24.6 °C 24.5 °C 23.2 °C 60000 m 0   0 cm 6 min 269.1 W/m² 1022.9 hPa
12:18 26.8 °C 12.4 °C 41 % 12 km/h (21 km/h) 0 mm0 mm 24.4 °C 24.6 °C 24.5 °C 23.2 °C 60000 m 0   0 cm 6 min 262.2 W/m² 1022.8 hPa
12:12 26.9 °C 12.9 °C 42 % 9 km/h (16 km/h) 0 mm0 mm 24.4 °C 24.6 °C 24.5 °C 23.2 °C 60000 m 0   0 cm 6 min 259.3 W/m² 1022.9 hPa
12:06 26.7 °C 13.1 °C 43 % 8 km/h (17 km/h) 0 mm0 mm 24.3 °C 24.6 °C 24.5 °C 23.2 °C 60000 m 0   0 cm 6 min 251.4 W/m² 1023 hPa
12:00 26.2 °C 13.3 °C 45 % 9 km/h (17 km/h) 0 mm0 mm 24.3 °C 24.6 °C 24.5 °C 23.2 °C 60000 m 0   0 cm 6 min 252.2 W/m² 1023 hPa
11:54 25.8 °C 13.3 °C 46 % 10 km/h (18 km/h) 0 mm0 mm 24.3 °C 24.6 °C 24.5 °C 23.2 °C 60000 m 0   0 cm 6 min 246.3 W/m² 1022.9 hPa
11:48 26 °C 13.5 °C 46 % 8 km/h (18 km/h) 0 mm0 mm 24.2 °C 24.6 °C 24.6 °C 23.2 °C 19640 m 0   0 cm 6 min 243.9 W/m² 1022.8 hPa
11:42 25.4 °C 13.3 °C 47 % 9 km/h (15 km/h) 0 mm0 mm 24.2 °C 24.6 °C 24.5 °C 23.2 °C 19640 m 0   0 cm 6 min 238.9 W/m² 1023 hPa
11:36 25.3 °C 13.2 °C 47 % 8 km/h (15 km/h) 0 mm0 mm 24.2 °C 24.6 °C 24.5 °C 23.2 °C 60000 m 0   0 cm 6 min 237.2 W/m² 1023 hPa
11:30 25.1 °C 13 °C 47 % 8 km/h (14 km/h) 0 mm0 mm 24.2 °C 24.6 °C 24.5 °C 23.2 °C 60000 m 0   0 cm 6 min 233.1 W/m² 1023 hPa
11:24 24.6 °C 13.5 °C 50 % 8 km/h (14 km/h) 0 mm0 mm 24.1 °C 24.6 °C 24.5 °C 23.2 °C 60000 m 0   0 cm 6 min 225.5 W/m² 1023 hPa
11:18 24.3 °C 13.5 °C 51 % 8 km/h (14 km/h) 0 mm0 mm 24.1 °C 24.6 °C 24.5 °C 23.2 °C 60000 m 0   0 cm 6 min 202.5 W/m² 1023 hPa
11:12 24.3 °C 13.8 °C 52 % 6 km/h (13 km/h) 0 mm0 mm 24.1 °C 24.6 °C 24.6 °C 23.2 °C 60000 m 0   0 cm 6 min 213.6 W/m² 1022.9 hPa
11:06 23.9 °C 13.7 °C 53 % 6 km/h (13 km/h) 0 mm0 mm 24.1 °C 24.6 °C 24.5 °C 23.2 °C 19830 m 0   0 cm 6 min 201.3 W/m² 1023 hPa
11:00 23.7 °C 14.1 °C 55 % 6 km/h (13 km/h) 0 mm0 mm 24.1 °C 24.6 °C 24.6 °C 23.2 °C 60000 m 0   0 cm 6 min 214.2 W/m² 1023 hPa
10:54 23.3 °C 13.7 °C 55 % 8 km/h (13 km/h) 0 mm0 mm 24.1 °C 24.6 °C 24.5 °C 23.2 °C 60000 m 0   0 cm 6 min 204.9 W/m² 1022.9 hPa
10:48 23.1 °C 13.8 °C 56 % 9 km/h (13 km/h) 0 mm0 mm 24.1 °C 24.6 °C 24.5 °C 23.2 °C 60000 m 0   0 cm 6 min 193.1 W/m² 1022.9 hPa
10:42 22.8 °C 13.6 °C 56 % 8 km/h (13 km/h) 0 mm0 mm 24.1 °C 24.6 °C 24.5 °C 23.2 °C 60000 m 0   0 cm 6 min 188.7 W/m² 1022.8 hPa
10:36 22.5 °C 13.8 °C 58 % 8 km/h (12 km/h) 0 mm0 mm 24.1 °C 24.6 °C 24.5 °C 23.2 °C 60000 m 0   0 cm 6 min 176.4 W/m² 1022.8 hPa
10:30 22.4 °C 13.7 °C 58 % 7 km/h (12 km/h) 0 mm0 mm 24 °C 24.7 °C 24.6 °C 23.2 °C 60000 m 0   0 cm 6 min 170.9 W/m² 1022.8 hPa
10:24 22 °C 13.6 °C 59 % 8 km/h (12 km/h) 0 mm0 mm 24.1 °C 24.6 °C 24.5 °C 23.2 °C 60000 m 0   0 cm 6 min 141.6 W/m² 1022.7 hPa
10:18 21.9 °C 13.8 °C 60 % 8 km/h (12 km/h) 0 mm0 mm 24 °C 24.7 °C 24.5 °C 23.2 °C 60000 m 0   0 cm 6 min 174.8 W/m² 1022.7 hPa
10:12 21.6 °C 13.8 °C 61 % 8 km/h (14 km/h) 0 mm0 mm 24.1 °C 24.7 °C 24.6 °C 23.2 °C 60000 m 0   0 cm 6 min 163.5 W/m² 1022.7 hPa
10:06 21.7 °C 13.6 °C 60 % 8 km/h (17 km/h) 0 mm0 mm 24 °C 24.7 °C 24.5 °C 23.2 °C 60000 m 0   0 cm 6 min 135.9 W/m² 1022.8 hPa
10:00 21.4 °C 13.3 °C 60 % 7 km/h (17 km/h) 0 mm0 mm 24.1 °C 24.7 °C 24.5 °C 23.2 °C 60000 m 0   0 cm 6 min 124.7 W/m² 1022.7 hPa
09:54 21.4 °C 13.1 °C 59 % 6 km/h (10 km/h) 0 mm0 mm 24 °C 24.7 °C 24.5 °C 23.2 °C 60000 m 0   0 cm 6 min 115.3 W/m² 1022.7 hPa
09:48 21.3 °C 13.5 °C 61 % 6 km/h (12 km/h) 0 mm0 mm 24.1 °C 24.7 °C 24.5 °C 23.2 °C 60000 m 0   0 cm 6 min 128.1 W/m² 1022.7 hPa
09:42 21.2 °C 13.4 °C 61 % 8 km/h (12 km/h) 0 mm0 mm 24.1 °C 24.8 °C 24.6 °C 23.2 °C 60000 m 0   0 cm 6 min 114.4 W/m² 1022.7 hPa
09:36 21.2 °C 13.6 °C 62 % 6 km/h (10 km/h) 0 mm0 mm 24.1 °C 24.8 °C 24.5 °C 23.2 °C 60000 m 0   0 cm 6 min 112.9 W/m² 1022.6 hPa
09:30 20.9 °C 13.8 °C 64 % 5 km/h (8 km/h) 0 mm0 mm 24.1 °C 24.8 °C 24.5 °C 23.2 °C 60000 m 0   0 cm 6 min 108 W/m² 1022.5 hPa
09:24 20.7 °C 13.4 °C 63 % 5 km/h (8 km/h) 0 mm0 mm 24.1 °C 24.8 °C 24.6 °C 23.2 °C 60000 m 0   0 cm 6 min 111.2 W/m² 1022.5 hPa
09:18 20.7 °C 13.6 °C 64 % 4 km/h (8 km/h) 0 mm0 mm 24.1 °C 24.8 °C 24.6 °C 23.2 °C 60000 m 0   0 cm 6 min 111.1 W/m² 1022.5 hPa
09:12 20.6 °C 14 °C 66 % 2 km/h (5 km/h) 0 mm0 mm 24.1 °C 24.8 °C 24.6 °C 23.2 °C 60000 m 0   0 cm 6 min 105 W/m² 1022.5 hPa
09:06 19.9 °C 14 °C 69 % 3 km/h (5 km/h) 0 mm0 mm 24.1 °C 24.8 °C 24.6 °C 23.2 °C 60000 m 0   0 cm 6 min 90.8 W/m² 1022.6 hPa
09:00 19.7 °C 14.1 °C 70 % 3 km/h (5 km/h) 0 mm0 mm 24.1 °C 24.8 °C 24.5 °C 23.2 °C 60000 m 0   0 cm 6 min 73.1 W/m² 1022.5 hPa
08:54 19.6 °C 13.8 °C 69 % 4 km/h (6 km/h) 0 mm0 mm 24.2 °C 24.9 °C 24.6 °C 23.2 °C 60000 m 0   0 cm 6 min 61.7 W/m² 1022.5 hPa
08:48 19.4 °C 14 °C 71 % 5 km/h (6 km/h) 0 mm0 mm 24.1 °C 24.9 °C 24.5 °C 23.2 °C 60000 m 0   0 cm 5 min 52 W/m² 1022.4 hPa
08:42 19.2 °C 13.6 °C 70 % 4 km/h (6 km/h) 0 mm0 mm 24.2 °C 24.9 °C 24.6 °C 23.2 °C 60000 m 0   0 cm 5 min 45.4 W/m² 1022.4 hPa
08:36 19.1 °C 13.9 °C 72 % 5 km/h (6 km/h) 0 mm0 mm 24.2 °C 24.9 °C 24.5 °C 23.2 °C 60000 m 0   0 cm 6 min 49.3 W/m² 1022.3 hPa
08:30 18.9 °C 13.7 °C 72 % 5 km/h (8 km/h) 0 mm0 mm 24.2 °C 24.9 °C 24.6 °C 23.2 °C 60000 m 0   0 cm 6 min 51.4 W/m² 1022.3 hPa
08:24 18.7 °C 14.2 °C 75 % 6 km/h (9 km/h) 0 mm0 mm 24.2 °C 25 °C 24.6 °C 23.2 °C 60000 m 0   0 cm 6 min 45.5 W/m² 1022.2 hPa
08:18 18.5 °C 14.2 °C 76 % 6 km/h (9 km/h) 0 mm0 mm 24.3 °C 25 °C 24.6 °C 23.2 °C 60000 m 0   0 cm 6 min 36.1 W/m² 1022.2 hPa
08:12 18.4 °C 13.9 °C 75 % 6 km/h (10 km/h) 0 mm0 mm 24.2 °C 25 °C 24.6 °C 23.2 °C 60000 m 0   0 cm 6 min 27.5 W/m² 1022.1 hPa
08:06 18.3 °C 14 °C 76 % 6 km/h (10 km/h) 0 mm0 mm 24.3 °C 25 °C 24.6 °C 23.2 °C 60000 m 0   0 cm 6 min 24.5 W/m² 1022.1 hPa
08:00 18.2 °C 13.9 °C 76 % 5 km/h (8 km/h) 0 mm0 mm 24.3 °C 25 °C 24.6 °C 23.2 °C 60000 m 0   0 cm 6 min 20.5 W/m² 1022 hPa
07:54 18.2 °C 13.5 °C 74 % 5 km/h (12 km/h) 0 mm0 mm 24.3 °C 25 °C 24.6 °C 23.2 °C 60000 m 0   0 cm 6 min 14.1 W/m² 1022 hPa
07:48 18.1 °C 13.4 °C 74 % 6 km/h (8 km/h) 0 mm0 mm 24.4 °C 25 °C 24.6 °C 23.2 °C 60000 m 0   0 cm 6 min 11 W/m² 1022 hPa
07:36 17.8 °C 13.1 °C 74 % 5 km/h (7 km/h) 0 mm0 mm 24.4 °C 25.1 °C 24.6 °C 23.2 °C 60000 m 0   0 cm 0 min 1.2 W/m² 1021.7 hPa
07:30 17.9 °C 13.2 °C 74 % 4 km/h (6 km/h) 0 mm0 mm 24.4 °C 25.1 °C 24.6 °C 23.2 °C 60000 m 0   0 cm 0 min 0 W/m² 1021.6 hPa
07:24 17.9 °C 13.2 °C 74 % 3 km/h (6 km/h) 0 mm0 mm 24.4 °C 25.1 °C 24.6 °C 23.2 °C 60000 m 0   0 cm 0 min 0 W/m² 1021.5 hPa
07:18 18 °C 13.5 °C 75 % 5 km/h (11 km/h) 0 mm0 mm 24.5 °C 25.1 °C 24.6 °C 23.2 °C 60000 m 0   0 cm 0 min 0 W/m² 1021.6 hPa
07:12 17.9 °C 13.4 °C 75 % 6 km/h (11 km/h) 0 mm0 mm 24.5 °C 25.1 °C 24.6 °C 23.2 °C 60000 m 0   0 cm 0 min 0 W/m² 1021.6 hPa
07:06 18 °C 13.5 °C 75 % 6 km/h (9 km/h) 0 mm0 mm 24.6 °C 25.1 °C 24.6 °C 23.2 °C 60000 m 0   0 cm 0 min 0 W/m² 1021.6 hPa
07:00 17.9 °C 13.6 °C 76 % 7 km/h (9 km/h) 0 mm0 mm 24.6 °C 25.2 °C 24.6 °C 23.2 °C 60000 m 0   0 cm 0 min 0 W/m² 1021.6 hPa
06:54 17.9 °C 13.6 °C 76 % 8 km/h (9 km/h) 0 mm0 mm 24.6 °C 25.2 °C 24.6 °C 23.2 °C 60000 m 0   0 cm 0 min 0 W/m² 1021.6 hPa
06:48 18 °C 13.3 °C 74 % 7 km/h (10 km/h) 0 mm0 mm 24.6 °C 25.2 °C 24.6 °C 23.2 °C 60000 m 0   0 cm 0 min 0 W/m² 1021.5 hPa
06:42 18.3 °C 13.6 °C 74 % 9 km/h (13 km/h) 0 mm0 mm 24.6 °C 25.2 °C 24.5 °C 23.2 °C 60000 m 0   0 cm 0 min 0 W/m² 1021.5 hPa
06:36 18.4 °C 13.5 °C 73 % 10 km/h (13 km/h) 0 mm0 mm 24.7 °C 25.2 °C 24.6 °C 23.2 °C 60000 m 0   0 cm 0 min 0 W/m² 1021.4 hPa
06:30 18.6 °C 13.5 °C 72 % 8 km/h (11 km/h) 0 mm0 mm 24.7 °C 25.2 °C 24.6 °C 23.2 °C 60000 m 0   0 cm 0 min 0 W/m² 1021.3 hPa
06:24 18.5 °C 13.4 °C 72 % 6 km/h (9 km/h) 0 mm0 mm 24.7 °C 25.3 °C 24.6 °C 23.2 °C 60000 m 0   0 cm 0 min 0 W/m² 1021.3 hPa
06:18 18.4 °C 13.3 °C 72 % 7 km/h (10 km/h) 0 mm0 mm 24.7 °C 25.3 °C 24.6 °C 23.2 °C 60000 m 0   0 cm 0 min 0 W/m² 1021.4 hPa
06:12 18.3 °C 13.4 °C 73 % 8 km/h (10 km/h) 0 mm0 mm 24.8 °C 25.3 °C 24.6 °C 23.2 °C 60000 m 0   0 cm 0 min 0 W/m² 1021.4 hPa
06:06 18.4 °C 13.5 °C 73 % 9 km/h (12 km/h) 0 mm0 mm 24.8 °C 25.3 °C 24.6 °C 23.2 °C 60000 m 0   0 cm 0 min 0 W/m² 1021.5 hPa
06:00 18.5 °C 13.6 °C 73 % 10 km/h (13 km/h) 0 mm0 mm 24.8 °C 25.3 °C 24.6 °C 23.2 °C 60000 m 0   0 cm 0 min 0 W/m² 1021.4 hPa
05:54 18.7 °C 13.8 °C 73 % 10 km/h (13 km/h) 0 mm0 mm 24.8 °C 25.3 °C 24.6 °C 23.2 °C 60000 m 0   0 cm 0 min 0 W/m² 1021.4 hPa
05:48 18.7 °C 13.8 °C 73 % 8 km/h (10 km/h) 0 mm0 mm 24.9 °C 25.3 °C 24.5 °C 23.2 °C 60000 m 0   0 cm 0 min 0 W/m² 1021.4 hPa
05:42 18.7 °C 13.8 °C 73 % 5 km/h (8 km/h) 0 mm0 mm 24.9 °C 25.3 °C 24.5 °C 23.2 °C 60000 m 0   0 cm 0 min 0 W/m² 1021.3 hPa
05:36 18.7 °C 13.8 °C 73 % 5 km/h (7 km/h) 0 mm0 mm 24.9 °C 25.4 °C 24.5 °C 23.2 °C 60000 m 0   0 cm 0 min 0 W/m² 1021.2 hPa
05:30 18.7 °C 14 °C 74 % 6 km/h (8 km/h) 0 mm0 mm 24.9 °C 25.4 °C 24.5 °C 23.2 °C 60000 m 0   0 cm 0 min 0 W/m² 1021.1 hPa
05:24 18.6 °C 14.1 °C 75 % 7 km/h (9 km/h) 0 mm0 mm 25 °C 25.4 °C 24.6 °C 23.2 °C 60000 m 0   0 cm 0 min 0 W/m² 1021.1 hPa
05:18 18.6 °C 14.3 °C 76 % 8 km/h (9 km/h) 0 mm0 mm 25 °C 25.5 °C 24.6 °C 23.2 °C 60000 m 0   0 cm 0 min 0 W/m² 1021.2 hPa
05:12 18.7 °C 14.4 °C 76 % 7 km/h (9 km/h) 0 mm0 mm 25 °C 25.5 °C 24.5 °C 23.2 °C 60000 m 0   0 cm 0 min 0 W/m² 1021.2 hPa
05:06 18.7 °C 14.4 °C 76 % 8 km/h (9 km/h) 0 mm0 mm 25 °C 25.5 °C 24.5 °C 23.2 °C 60000 m 0   0 cm 0 min 0 W/m² 1021.2 hPa
05:00 18.7 °C 14.6 °C 77 % 8 km/h (9 km/h) 0 mm0 mm 25.1 °C 25.5 °C 24.6 °C 23.2 °C 60000 m 0   0 cm 0 min 0 W/m² 1021.3 hPa
04:54 18.6 °C 14.5 °C 77 % 7 km/h (8 km/h) 0 mm0 mm 25.1 °C 25.5 °C 24.5 °C 23.2 °C 60000 m 0   0 cm 0 min 0 W/m² 1021.3 hPa
04:48 18.6 °C 14.5 °C 77 % 7 km/h (10 km/h) 0 mm0 mm 25.1 °C 25.5 °C 24.5 °C 23.2 °C 60000 m 0   0 cm 0 min 0 W/m² 1021.3 hPa
04:42 18.8 °C 14.7 °C 77 % 9 km/h (11 km/h) 0 mm0 mm 25.2 °C 25.6 °C 24.5 °C 23.2 °C 60000 m 0   0 cm 0 min 0 W/m² 1021.3 hPa
04:36 18.8 °C 14.7 °C 77 % 10 km/h (14 km/h) 0 mm0 mm 25.2 °C 25.6 °C 24.5 °C 23.2 °C 60000 m 0   0 cm 0 min 0 W/m² 1021.3 hPa
04:30 18.8 °C 14.7 °C 77 % 11 km/h (14 km/h) 0 mm0 mm 25.2 °C 25.6 °C 24.5 °C 23.2 °C 60000 m 0   0 cm 0 min 0 W/m² 1021.3 hPa
04:24 19 °C 14.9 °C 77 % 9 km/h (12 km/h) 0 mm0 mm 25.2 °C 25.6 °C 24.5 °C 23.2 °C 60000 m 0   0 cm 0 min 0 W/m² 1021.3 hPa
04:18 19 °C 15.1 °C 78 % 11 km/h (15 km/h) 0 mm0 mm 25.3 °C 25.6 °C 24.5 °C 23.2 °C 60000 m 0   0 cm 0 min 0 W/m² 1021.2 hPa
04:12 19.1 °C 14.8 °C 76 % 11 km/h (15 km/h) 0 mm0 mm 25.3 °C 25.6 °C 24.6 °C 23.2 °C 60000 m 0   0 cm 0 min 0 W/m² 1021.2 hPa
04:06 19.1 °C 14.6 °C 75 % 7 km/h (10 km/h) 0 mm0 mm 25.3 °C 25.6 °C 24.5 °C 23.2 °C 60000 m 0   0 cm 0 min 0 W/m² 1021.1 hPa
04:00 19 °C 14.5 °C 75 % 8 km/h (12 km/h) 0 mm0 mm 25.3 °C 25.6 °C 24.5 °C 23.2 °C 60000 m 0   0 cm 0 min 0 W/m² 1021 hPa
03:54 19.1 °C 14.6 °C 75 % 11 km/h (13 km/h) 0 mm0 mm 25.4 °C 25.6 °C 24.5 °C 23.2 °C 60000 m 0   0 cm 0 min 0 W/m² 1021.1 hPa
03:48 19.5 °C 14.9 °C 75 % 10 km/h (13 km/h) 0 mm0 mm 25.4 °C 25.7 °C 24.5 °C 23.2 °C 60000 m 0   0 cm 0 min 0 W/m² 1021.2 hPa
03:42 19.8 °C 15.2 °C 75 % 8 km/h (10 km/h) 0 mm0 mm 25.5 °C 25.7 °C 24.5 °C 23.2 °C 60000 m 0   0 cm 0 min 0 W/m² 1021.1 hPa
03:36 20 °C 14.8 °C 72 % 7 km/h (9 km/h) 0 mm0 mm 25.5 °C 25.7 °C 24.5 °C 23.2 °C 60000 m 0   0 cm 0 min 0 W/m² 1021 hPa
03:30 20.1 °C 15.1 °C 73 % 7 km/h (8 km/h) 0 mm0 mm 25.5 °C 25.7 °C 24.5 °C 23.2 °C 60000 m 0   0 cm 0 min 0 W/m² 1020.9 hPa
03:24 20.2 °C 15 °C 72 % 6 km/h (8 km/h) 0 mm0 mm 25.5 °C 25.7 °C 24.5 °C 23.2 °C 60000 m 0   0 cm 0 min 0 W/m² 1020.9 hPa
03:18 20.2 °C 14.8 °C 71 % 5 km/h (6 km/h) 0 mm0 mm 25.5 °C 25.7 °C 24.5 °C 23.2 °C 60000 m 0   0 cm 0 min 0 W/m² 1020.9 hPa
03:12 20.2 °C 15 °C 72 % 5 km/h (7 km/h) 0 mm0 mm 25.6 °C 25.8 °C 24.5 °C 23.2 °C 60000 m 0   0 cm 0 min 0 W/m² 1020.9 hPa
03:06 20.1 °C 15.1 °C 73 % 7 km/h (9 km/h) 0 mm0 mm 25.6 °C 25.7 °C 24.5 °C 23.2 °C 60000 m 0   0 cm 0 min 0 W/m² 1020.8 hPa
03:00 20.1 °C 15.5 °C 75 % 8 km/h (9 km/h) 0 mm0 mm 25.6 °C 25.8 °C 24.5 °C 23.2 °C 60000 m 0   0 cm 0 min 0 W/m² 1020.9 hPa
02:54 20.2 °C 15.4 °C 74 % 8 km/h (9 km/h) 0 mm0 mm 25.7 °C 25.8 °C 24.5 °C 23.2 °C 60000 m 0   0 cm 0 min 0 W/m² 1020.9 hPa
02:48 20.4 °C 15.4 °C 73 % 6 km/h (8 km/h) 0 mm0 mm 25.7 °C 25.8 °C 24.5 °C 23.2 °C 60000 m 0   0 cm 0 min 0 W/m² 1020.9 hPa
02:42 20.4 °C 15.2 °C 72 % 6 km/h (8 km/h) 0 mm0 mm 25.7 °C 25.8 °C 24.5 °C 23.2 °C 60000 m 0   0 cm 0 min 0 W/m² 1020.8 hPa
02:36 20.4 °C 15.4 °C 73 % 6 km/h (8 km/h) 0 mm0 mm 25.7 °C 25.8 °C 24.5 °C 23.2 °C 60000 m 0   0 cm 0 min 0 W/m² 1020.7 hPa
02:30 20.5 °C 15.5 °C 73 % 6 km/h (8 km/h) 0 mm0 mm 25.7 °C 25.8 °C 24.5 °C 23.2 °C 60000 m 0   0 cm 0 min 0 W/m² 1020.8 hPa
02:24 20.4 °C 15.6 °C 74 % 8 km/h (10 km/h) 0 mm0 mm 25.8 °C 25.8 °C 24.4 °C 23.2 °C 60000 m 0   0 cm 0 min 0 W/m² 1020.7 hPa
02:18 20.3 °C 15.5 °C 74 % 9 km/h (10 km/h) 0 mm0 mm 25.8 °C 25.9 °C 24.5 °C 23.2 °C 60000 m 0   0 cm 0 min 0 W/m² 1020.8 hPa
02:12 20.4 °C 15.6 °C 74 % 10 km/h (11 km/h) 0 mm0 mm 25.9 °C 25.9 °C 24.5 °C 23.2 °C 60000 m 0   0 cm 0 min 0 W/m² 1020.9 hPa
02:06 20.5 °C 15.7 °C 74 % 10 km/h (12 km/h) 0 mm0 mm 25.9 °C 25.9 °C 24.5 °C 23.2 °C 60000 m 0   0 cm 0 min 0 W/m² 1020.9 hPa
02:00 20.8 °C 15.8 °C 73 % 9 km/h (12 km/h) 0 mm0 mm 25.9 °C 25.9 °C 24.4 °C 23.2 °C 60000 m 0   0 cm 0 min 0 W/m² 1020.9 hPa
01:54 21 °C 16 °C 73 % 10 km/h (12 km/h) 0 mm0 mm 25.9 °C 25.9 °C 24.5 °C 23.2 °C 60000 m 0   0 cm 0 min 0 W/m² 1020.8 hPa
01:48 21 °C 16 °C 73 % 10 km/h (13 km/h) 0 mm0 mm 25.9 °C 25.9 °C 24.4 °C 23.2 °C 60000 m 0   0 cm 0 min 0 W/m² 1020.8 hPa
01:42 21 °C 16.2 °C 74 % 10 km/h (13 km/h) 0 mm0 mm 26 °C 25.9 °C 24.5 °C 23.2 °C 60000 m 0   0 cm 0 min 0 W/m² 1020.9 hPa
01:36 20.9 °C 16.3 °C 75 % 9 km/h (12 km/h) 0 mm0 mm 26 °C 25.9 °C 24.5 °C 23.2 °C 60000 m 0   0 cm 0 min 0 W/m² 1020.8 hPa
01:30 21.1 °C 16.1 °C 73 % 9 km/h (11 km/h) 0 mm0 mm 26 °C 26 °C 24.4 °C 23.2 °C 60000 m 0   0 cm 0 min 0 W/m² 1020.7 hPa
01:24 20.9 °C 16.3 °C 75 % 9 km/h (11 km/h) 0 mm0 mm 26 °C 26 °C 24.4 °C 23.2 °C 60000 m 0   0 cm 0 min 0 W/m² 1020.8 hPa
01:18 21.2 °C 16.4 °C 74 % 8 km/h (9 km/h) 0 mm0 mm 26.1 °C 26 °C 24.5 °C 23.2 °C 60000 m 0   0 cm 0 min 0 W/m² 1020.8 hPa
01:12 21.5 °C 16.2 °C 72 % 8 km/h (10 km/h) 0 mm0 mm 26.1 °C 26 °C 24.4 °C 23.2 °C 60000 m 0   0 cm 0 min 0 W/m² 1020.6 hPa
01:06 21.3 °C 16.5 °C 74 % 9 km/h (11 km/h) 0 mm0 mm 26.1 °C 26 °C 24.5 °C 23.2 °C 60000 m 0   0 cm 0 min 0 W/m² 1020.7 hPa
01:00 21.1 °C 16.9 °C 77 % 9 km/h (10 km/h) 0 mm0 mm 26.2 °C 26 °C 24.4 °C 23.2 °C 60000 m 0   0 cm 0 min 0 W/m² 1020.7 hPa
00:54 21.4 °C 16.8 °C 75 % 9 km/h (12 km/h) 0 mm0 mm 26.2 °C 26 °C 24.4 °C 23.2 °C 60000 m 0   0 cm 0 min 0 W/m² 1020.6 hPa
00:48 21.5 °C 16.9 °C 75 % 10 km/h (12 km/h) 0 mm0 mm 26.2 °C 26 °C 24.4 °C 23.2 °C 60000 m 0   0 cm 0 min 0 W/m² 1020.6 hPa
00:42 21.4 °C 17 °C 76 % 10 km/h (13 km/h) 0 mm0 mm 26.3 °C 26 °C 24.4 °C 23.2 °C 60000 m 0   0 cm 0 min 0 W/m² 1020.6 hPa
00:36 21.6 °C 17 °C 75 % 10 km/h (13 km/h) 0 mm0 mm 26.3 °C 26 °C 24.4 °C 23.2 °C 60000 m 0   0 cm 0 min 0 W/m² 1020.6 hPa
00:30 21.9 °C 17.3 °C 75 % 9 km/h (11 km/h) 0 mm0 mm 26.3 °C 26 °C 24.4 °C 23.2 °C 60000 m 0   0 cm 0 min 0 W/m² 1020.5 hPa
00:24 21.8 °C 17 °C 74 % 8 km/h (10 km/h) 0 mm0 mm 26.3 °C 26 °C 24.4 °C 23.2 °C 60000 m 0   0 cm 0 min 0 W/m² 1020.5 hPa
00:18 22.3 °C 17.2 °C 73 % 7 km/h (9 km/h) 0 mm0 mm 26.4 °C 26 °C 24.4 °C 23.2 °C 60000 m 0   0 cm 0 min 0 W/m² 1020.5 hPa
00:12 22.2 °C 17.1 °C 73 % 8 km/h (10 km/h) 0 mm0 mm 26.4 °C 26.1 °C 24.4 °C 23.2 °C 60000 m 0   0 cm 0 min 0 W/m² 1020.5 hPa
00:06 22.1 °C 17 °C 73 % 8 km/h (10 km/h) 0 mm0 mm 26.4 °C 26.1 °C 24.4 °C 23.2 °C 60000 m 0   0 cm 0 min 0 W/m² 1020.5 hPa
00:00 22.7 °C 17.6 °C 73 % 8 km/h (10 km/h) 0 mm0.2 mm 26.4 °C 26.1 °C 24.4 °C 23.2 °C 60000 m 0   0 cm 0 min 0 W/m² 1020.5 hPa

Données via Météo-France

Relevés météo à Toulouse-Blagnac

Cette page rassemble les observations de la station de Toulouse-Blagnac : température, humidité, vent, précipitations et pression atmosphérique. Les graphiques facilitent le suivi de la journée, tandis que le tableau donne accès aux mesures horaires et infra-horaires disponibles.

Pour replacer ces mesures dans leur contexte, consultez la climatologie de Toulouse-Blagnac ainsi que ses normales et records. Retrouvez aussi la carte des observations météo en temps réel.